• Join FlightAware (Why Join?)
  • Login
  • US Flag 
08:10AM EDT


 

Airport Tracker/Info


-or-


 

Live Flight TrackerFlight Track Log ✈ N702LK ✈ 26-Feb-2014 ✈ KAPF - MROC / SJO

Flight Track Log - Related Links

Times and Time Zones

All times are in EST time to prevent confusion due to time zone crossing. See the N702LK flight status page for this flight to view local times or setup timezone preferences in your user account.

Time Position Orientation Groundspeed Altitude Reporting Facility
EST Latitude Longitude Course Direction KTS MPH feet Rate Location/Type
07:52AM 26.2006 -81.7072 167° South 221 254 3,900  Level Miami Center
07:53AM 26.1817 -81.6464 109° East 237 273 7,200 3,360 Climbing Miami Center
07:54AM 26.1094 -81.6203 162° South 224 258 10,700 2,760 Climbing Miami Center
07:55AM 26.0181 -81.6050 171° South 289 333 12,800 2,400 Climbing Miami Center
07:56AM 25.9142 -81.5847 170° South 362 417 15,600 2,640 Climbing Miami Center
07:57AM 25.5029 -81.5049 167° South  Level FlightAware Approximate
07:57AM 25.7897 -81.5614 170° South 416 479 18,100  Level Miami Center
07:58AM 25.6756 -81.5408 171° South 422 486 20,900 2,520 Climbing Miami Center
07:59AM 25.5531 -81.5178 170° South 432 497 23,200 2,220 Climbing Miami Center
08:00AM 25.4411 -81.4928 169° South 448 516 25,400 2,160 Climbing Miami Center
08:01AM 25.3103 -81.4692 171° South 460 529 27,600 2,040 Climbing Miami Center
08:02AM 25.1775 -81.4414 169° South 482 555 29,500 1,740 Climbing Miami Center
08:03AM 25.0403 -81.4156 170° South 493 567 31,100 1,920 Climbing Miami Center
08:04AM 24.8992 -81.3875 170° South 507 583 33,400 2,220 Climbing Miami Center
08:05AM 24.7603 -81.3594 170° South 513 590 35,600 2,280 Climbing Miami Center
08:06AM 24.6169 -81.3314 170° South 519 597 38,000 2,280 Climbing Miami Center
08:07AM 24.4778 -81.3036 170° South 519 597 40,200 1,440 Climbing Miami Center
08:08AM 24.3428 -81.2806 171° South 514 592 40,900 300 Climbing Miami Center
08:09AM 24.2056 -81.2553 170° South 508 585 40,900  Level Miami Center
08:10AM 24.0667 -81.2275 170° South 508 585 40,900 -180 Level Miami Center
08:12AM 23.8719 -81.2473 192° South  Level FlightAware Approximate
08:19AM 23.0733 -81.4367 192° South  Level FlightAware Approximate
08:20AM 22.9604 -81.4687 197° South  Level FlightAware Approximate
08:21AM 22.8488 -81.5058 197° South  Level FlightAware Approximate
08:22AM 22.7372 -81.5428 197° South  Level FlightAware Approximate
08:23AM 22.6255 -81.5798 197° South  Level FlightAware Approximate
08:24AM 22.5138 -81.6167 197° South  Level FlightAware Approximate
08:25AM 22.4021 -81.6535 197° South  Level FlightAware Approximate
08:26AM 22.2904 -81.6903 197° South  Level FlightAware Approximate
08:27AM 22.1787 -81.7271 197° South  Level FlightAware Approximate
08:28AM 22.0671 -81.7637 197° South  Level FlightAware Approximate
08:29AM 21.9553 -81.8004 197° South  Level FlightAware Approximate
08:30AM 21.8436 -81.8369 197° South  Level FlightAware Approximate
08:31AM 21.7319 -81.8734 197° South  Level FlightAware Approximate
08:32AM 21.6201 -81.9099 197° South  Level FlightAware Approximate
08:33AM 21.5084 -81.9463 197° South  Level FlightAware Approximate
08:34AM 21.3967 -81.9826 197° South  Level FlightAware Approximate
08:35AM 21.2849 -82.0189 197° South  Level FlightAware Approximate
08:36AM 21.1731 -82.0551 197° South  Level FlightAware Approximate
08:37AM 21.0613 -82.0912 197° South  Level FlightAware Approximate
08:38AM 20.9496 -82.1274 197° South  Level FlightAware Approximate
08:39AM 20.8378 -82.1634 197° South  Level FlightAware Approximate
08:40AM 20.7260 -82.1994 197° South  Level FlightAware Approximate
08:41AM 20.6142 -82.2354 197° South  Level FlightAware Approximate
08:42AM 20.5024 -82.2713 197° South  Level FlightAware Approximate
08:43AM 20.3905 -82.3071 197° South  Level FlightAware Approximate
08:44AM 20.2787 -82.3429 197° South  Level FlightAware Approximate
08:45AM 20.1669 -82.3786 197° South  Level FlightAware Approximate
08:46AM 20.0534 -82.4030 192° South  Level FlightAware Approximate
08:47AM 19.9392 -82.4289 192° South  Level FlightAware Approximate
08:48AM 19.8250 -82.4547 192° South  Level FlightAware Approximate
08:49AM 19.7108 -82.4805 192° South  Level FlightAware Approximate
08:50AM 19.5965 -82.5062 192° South  Level FlightAware Approximate
08:51AM 19.4824 -82.5321 192° South  Level FlightAware Approximate
08:52AM 19.3682 -82.5582 192° South  Level FlightAware Approximate
08:53AM 19.2541 -82.5842 192° South  Level FlightAware Approximate
08:54AM 19.1399 -82.6101 192° South  Level FlightAware Approximate
08:55AM 19.0258 -82.6360 192° South  Level FlightAware Approximate
08:56AM 18.9116 -82.6619 192° South  Level FlightAware Approximate
08:57AM 18.7974 -82.6878 192° South  Level FlightAware Approximate
08:58AM 18.6833 -82.7136 192° South  Level FlightAware Approximate
08:59AM 18.5691 -82.7394 192° South  Level FlightAware Approximate
09:00AM 18.4549 -82.7652 192° South  Level FlightAware Approximate
09:01AM 18.3407 -82.7909 192° South  Level FlightAware Approximate
09:02AM 18.2266 -82.8166 192° South  Level FlightAware Approximate
09:03AM 18.1124 -82.8422 192° South  Level FlightAware Approximate
09:04AM 17.9982 -82.8679 192° South  Level FlightAware Approximate
09:05AM 17.8840 -82.8935 192° South  Level FlightAware Approximate
09:06AM 17.7698 -82.9190 192° South  Level FlightAware Approximate
09:07AM 17.6556 -82.9445 192° South  Level FlightAware Approximate
09:08AM 17.5414 -82.9700 192° South  Level FlightAware Approximate
09:09AM 17.4272 -82.9955 192° South  Level FlightAware Approximate
09:10AM 17.3130 -83.0209 192° South  Level FlightAware Approximate
09:11AM 17.1988 -83.0463 192° South  Level FlightAware Approximate
09:12AM 17.0846 -83.0717 192° South  Level FlightAware Approximate
09:13AM 16.9704 -83.0970 192° South  Level FlightAware Approximate
09:14AM 16.8561 -83.1223 192° South  Level FlightAware Approximate
09:15AM 16.7419 -83.1476 192° South  Level FlightAware Approximate
09:16AM 16.6277 -83.1728 192° South  Level FlightAware Approximate
09:17AM 16.5135 -83.1980 192° South  Level FlightAware Approximate
09:18AM 16.3993 -83.2232 192° South  Level FlightAware Approximate
09:19AM 16.2850 -83.2483 192° South  Level FlightAware Approximate
09:20AM 16.1708 -83.2735 192° South  Level FlightAware Approximate
09:21AM 16.0565 -83.2986 192° South  Level FlightAware Approximate
09:22AM 15.9419 -83.3216 191° South  Level FlightAware Approximate
09:23AM 15.8273 -83.3446 191° South  Level FlightAware Approximate
09:24AM 15.7126 -83.3675 191° South  Level FlightAware Approximate
09:25AM 15.5979 -83.3904 191° South  Level FlightAware Approximate
09:26AM 15.4833 -83.4132 191° South  Level FlightAware Approximate
09:27AM 15.3686 -83.4360 191° South  Level FlightAware Approximate
09:28AM 15.2540 -83.4588 191° South  Level FlightAware Approximate
09:29AM 15.1393 -83.4816 191° South  Level FlightAware Approximate
09:30AM 15.0246 -83.5043 191° South  Level FlightAware Approximate
09:31AM 14.9099 -83.5271 191° South  Level FlightAware Approximate
09:32AM 14.7953 -83.5498 191° South  Level FlightAware Approximate
09:33AM 14.6806 -83.5725 191° South  Level FlightAware Approximate
09:34AM 14.5659 -83.5951 191° South  Level FlightAware Approximate
09:35AM 14.4512 -83.6177 191° South  Level FlightAware Approximate
09:36AM 14.3365 -83.6404 191° South  Level FlightAware Approximate
09:37AM 14.2219 -83.6629 191° South  Level FlightAware Approximate
09:38AM 14.1072 -83.6855 191° South  Level FlightAware Approximate
09:39AM 13.9925 -83.7082 191° South  Level FlightAware Approximate
09:40AM 13.8779 -83.7311 191° South  Level FlightAware Approximate
09:41AM 13.7636 -83.7557 192° South  Level FlightAware Approximate
09:42AM 13.6494 -83.7805 192° South  Level FlightAware Approximate
09:43AM 13.5351 -83.8053 192° South  Level FlightAware Approximate
09:44AM 13.4209 -83.8300 192° South  Level FlightAware Approximate
09:45AM 13.3066 -83.8548 192° South  Level FlightAware Approximate
09:46AM 13.1924 -83.8795 192° South  Level FlightAware Approximate
09:47AM 13.0781 -83.9042 192° South  Level FlightAware Approximate
09:48AM 12.9638 -83.9288 192° South  Level FlightAware Approximate
09:49AM 12.8496 -83.9534 192° South  Level FlightAware Approximate
09:50AM 12.7353 -83.9781 192° South  Level FlightAware Approximate
09:51AM 12.6210 -84.0026 192° South  Level FlightAware Approximate
09:52AM 12.5066 -84.0264 192° South  Level FlightAware Approximate
09:53AM 12.3922 -84.0503 192° South  Level FlightAware Approximate
09:54AM 12.2778 -84.0741 191° South  Level FlightAware Approximate
09:55AM 12.1633 -84.0974 191° South  Level FlightAware Approximate
09:56AM 12.0490 -84.1215 195° South  Level FlightAware Approximate
09:57AM 11.9362 -84.1523 195° South  Level FlightAware Approximate
09:58AM 11.8221 -84.1769 189° South  Level FlightAware Approximate
09:59AM 11.7070 -84.1972 190° South  Level FlightAware Approximate
09:59AM 10.9645 -84.3623 192° South 459 528 26,300  Level FlightAware ADS-B (MRPV / SYQ)
09:59AM 10.8946 -84.3764 192° South 456 525 25,100 -2,400 Descending FlightAware ADS-B (MRPV / SYQ)
10:00AM 10.8307 -84.3894 192° South 456 525 23,900 -2,700 Descending FlightAware ADS-B (MRPV / SYQ)
10:00AM 10.7673 -84.3979 185° South 446 513 22,400 -3,000 Descending FlightAware ADS-B (MRPV / SYQ)
10:01AM 10.7080 -84.4028 185° South 438 504 20,900 -3,240 Descending FlightAware ADS-B (MRPV / SYQ)
10:01AM 10.6469 -84.4080 185° South 432 497 19,200 -3,300 Descending FlightAware ADS-B (MRPV / SYQ)
10:02AM 10.5862 -84.4131 185° South 424 488 17,600 -3,180 Descending FlightAware ADS-B (MRPV / SYQ)
10:02AM 10.5301 -84.4178 185° South 414 476 16,100 -3,000 Descending FlightAware ADS-B (MRPV / SYQ)
10:03AM 10.4723 -84.4225 185° South 403 464 14,600 -2,940 Descending FlightAware ADS-B (MRPV / SYQ)
10:03AM 10.4182 -84.4271 185° South 391 450 13,200 -2,100 Descending FlightAware ADS-B (MRPV / SYQ)
10:04AM 10.3659 -84.4314 185° South 359 413 12,500 -1,920 Descending FlightAware ADS-B (MRPV / SYQ)
10:04AM 10.3153 -84.4357 185° South 347 399 11,300 -2,220 Descending FlightAware ADS-B (MRPV / SYQ)
10:05AM 10.2689 -84.4396 185° South 325 374 10,300 -1,920 Descending FlightAware ADS-B (MRPV / SYQ)
10:05AM 10.2492 -84.4412 185° South 301 346 9,900 -1,440 Descending FlightAware ADS-B (MRPV / SYQ)
10:05AM 10.2271 -84.4430 185° South 287 330 9,600 -1,440 Descending FlightAware ADS-B (MRPV / SYQ)
10:06AM 10.2075 -84.4447 185° South 281 323 9,200 -1,200 Descending FlightAware ADS-B (MRPV / SYQ)
10:06AM 10.1882 -84.4463 186° South 273 314 9,000 -540 Descending FlightAware ADS-B (MRPV / SYQ)
10:06AM 10.1651 -84.4482 185° South 252 290 8,900 -180 Descending FlightAware ADS-B (MRPV / SYQ)
10:07AM 10.1421 -84.4501 185° South 232 267 8,900  Level FlightAware ADS-B (MRPV / SYQ)
10:07AM 10.1203 -84.4520 185° South 230 265 8,900  Level FlightAware ADS-B (MRPV / SYQ)
10:07AM 10.0998 -84.4536 185° South 229 264 8,900  Level FlightAware ADS-B (MRPV / SYQ)
10:08AM 10.0778 -84.4554 185° South 244 281 8,900  Level FlightAware ADS-B (MRPV / SYQ)
10:08AM 10.0541 -84.4574 185° South 254 292 8,900 -180 Level FlightAware ADS-B (MRPV / SYQ)
10:08AM 10.0364 -84.4589 185° South 255 293 8,800 -1,200 Descending FlightAware ADS-B (MRPV / SYQ)
10:08AM 10.0181 -84.4604 185° South 260 299 8,300 -1,980 Descending FlightAware ADS-B (MRPV / SYQ)
10:09AM 10.0003 -84.4619 185° South 264 304 7,800 -1,920 Descending FlightAware ADS-B (MRPV / SYQ)
10:09AM 9.9819 -84.4634 185° South 267 307 7,400 -1,680 Descending FlightAware ADS-B (MRPV / SYQ)
10:09AM 9.9641 -84.4649 185° South 264 304 7,000 -1,080 Descending FlightAware ADS-B (MRPV / SYQ)
10:09AM 9.9467 -84.4663 185° South 249 287 6,900 -240 Descending FlightAware ADS-B (MRPV / SYQ)
10:10AM 9.9344 -84.4672 182° South 236 272 6,900  Level FlightAware ADS-B (MRPV / SYQ)
10:10AM 9.9296 -84.4670 173° South 231 266 6,900  Level FlightAware ADS-B (MRPV / SYQ)
10:10AM 9.9259 -84.4664 167° South 227 261 6,900  Level FlightAware ADS-B (MRPV / SYQ)
10:10AM 9.9213 -84.4649 154° Southeast 224 258 6,900  Level FlightAware ADS-B (MRPV / SYQ)
10:10AM 9.9169 -84.4622 143° Southeast 222 255 6,900  Level FlightAware ADS-B (MRPV / SYQ)
10:10AM 9.9127 -84.4581 129° Southeast 218 251 6,900  Level FlightAware ADS-B (MRPV / SYQ)
10:10AM 9.9102 -84.4542 116° Southeast 212 244 6,900  Level FlightAware ADS-B (MRPV / SYQ)
10:10AM 9.9087 -84.4502 105° East 207 238 6,900  Level FlightAware ADS-B (MRPV / SYQ)
10:10AM 9.9079 -84.4455 93° East 201 231 6,900  Level FlightAware ADS-B (MRPV / SYQ)
10:10AM 9.9082 -84.4404 82° East 196 226 6,900  Level FlightAware ADS-B (MRPV / SYQ)
10:10AM 9.9092 -84.4360 74° East 189 217 6,900 -240 Level FlightAware ADS-B (MRPV / SYQ)
10:11AM 9.9144 -84.4200 70° East 184 212 6,800 -360 Descending FlightAware ADS-B (MRPV / SYQ)
10:11AM 9.9191 -84.4071 69° East 183 211 6,700 -840 Descending FlightAware ADS-B (MRPV / SYQ)
10:11AM 9.9232 -84.3960 69° East 182 209 6,400 -1,200 Descending FlightAware ADS-B (MRPV / SYQ)
10:11AM 9.9279 -84.3836 68° East 183 211 6,100 -1,020 Descending FlightAware ADS-B (MRPV / SYQ)
10:12AM 9.9325 -84.3716 68° East 183 211 5,900 -1,020 Descending FlightAware ADS-B (MRPV / SYQ)
10:12AM 9.9371 -84.3597 68° East 182 209 5,600 -1,020 Descending FlightAware ADS-B (MRPV / SYQ)
10:12AM 9.9416 -84.3479 68° East 179 206 5,400 -1,020 Descending FlightAware ADS-B (MRPV / SYQ)
10:12AM 9.9461 -84.3359 68° East 177 204 5,100 -1,020 Descending FlightAware ADS-B (MRPV / SYQ)
10:13AM 9.9502 -84.3251 69° East 170 196 4,900 -780 Descending FlightAware ADS-B (MRPV / SYQ)
10:13AM 9.9545 -84.3139 68° East 166 191 4,700 -840 Descending FlightAware ADS-B (MRPV / SYQ)
10:13AM 9.9583 -84.3036 69° East 156 180 4,500 -840 Descending FlightAware ADS-B (MRPV / SYQ)
10:13AM 9.9620 -84.2941 68° East 151 174 4,300 -840 Descending FlightAware ADS-B (MRPV / SYQ)
10:14AM 9.9657 -84.2843 68° East 143 165 4,100 -840 Descending FlightAware ADS-B (MRPV / SYQ)
10:14AM 9.9692 -84.2751 69° East 137 158 3,900 -600 Descending FlightAware ADS-B (MRPV / SYQ)
10:14AM 9.9726 -84.2660 69° East 138 159 3,800 -660 Descending FlightAware ADS-B (MRPV / SYQ)
10:14AM 9.9757 -84.2577 68° East 137 158 3,600 -840 Descending FlightAware ADS-B (MRPV / SYQ)
10:15AM 9.9792 -84.2482 69° East 133 153 3,400 -600 Descending FlightAware ADS-B (MRPV / SYQ)
10:15AM 9.9824 -84.2397 68° East 129 148 3,300 -600 Descending FlightAware ADS-B (MRPV / SYQ)
10:15AM 9.9857 -84.2309 69° East 130 150 3,100 -780 Descending FlightAware ADS-B (MRPV / SYQ)
10:15AM 9.9889 -84.2222 68° East 131 151 2,900 -420 Descending FlightAware ADS-B (MRPV / SYQ)
10:16AM 9.9919 -84.2143 69° East 106 122 2,900  Level FlightAware ADS-B (MRPV / SYQ)
10:16AM 9.9922 -84.2135 68° East 94 108 2,900  Level FlightAware ADS-B (MRPV / SYQ)
10:16AM 9.9872 -84.2270 68° East 130 150 2,900  Level FlightAware ADS-B (MRPV / SYQ)
10:19AM 9.9872 -84.2270 68° East 130 150 2,900  Level FlightAware ADS-B (MRPV / SYQ)
10:21AM 9.9922 -84.2135 68° East 94 108 2,900  Level FlightAware ADS-B (MRPV / SYQ)
10:21AM 9.9872 -84.2270 68° East 130 150 2,900  Level FlightAware ADS-B (MRPV / SYQ)
10:23AM 10.0000 -84.2167 154° Southeast  Level FlightAware Approximate
10:24AM 9.9939 -84.2088 154° Southeast  Level Estimated
10:25AM 9.9939 -84.2088 154° Southeast  Level Estimated
10:26AM 9.9939 -84.2088 154° Southeast  Level Estimated
10:27AM 9.9939 -84.2088 154° Southeast  Level Estimated
10:28AM 9.9939 -84.2088 154° Southeast  Level Estimated
10:29AM 9.9939 -84.2088 154° Southeast  Level Estimated